Time;durP1;ratioP1;P1;durP2;ratioP2;P2;SDS_P1;SDS_P2;PMS_P1;PMS_P2;Temp;Humidity;BMP_temperature;BMP_pressure;BME280_temperature;BME280_humidity;BME280_pressure;Samples;Min_cycle;Max_cycle;Signal;HPM_P1;HPM_P2
2023/04/11 00:00:26;;;;;;;2.28;1.30;;;;;;;7.96;100.00;98862.94;5095088;28;20444;-61
2023/04/11 00:02:53;;;;;;;2.47;1.30;;;;;;;7.93;100.00;98844.69;5098042;28;20154;-61
2023/04/11 00:05:19;;;;;;;5.90;1.88;;;;;;;7.98;100.00;98850.16;5094629;28;20027;-59
2023/04/11 00:07:44;;;;;;;2.00;1.30;;;;;;;7.97;100.00;98855.75;5097920;28;20031;-60
2023/04/11 00:10:10;;;;;;;2.72;1.40;;;;;;;7.97;100.00;98851.22;5103874;28;20137;-60
2023/04/11 00:12:35;;;;;;;2.15;1.25;;;;;;;7.95;100.00;98834.63;5095998;28;20020;-60
2023/04/11 00:15:01;;;;;;;1.65;1.20;;;;;;;8.07;100.00;98855.94;5095102;28;20135;-60
2023/04/11 00:17:30;;;;;;;3.50;1.25;;;;;;;8.00;100.00;98850.72;5099362;28;20035;-60
2023/04/11 00:19:56;;;;;;;2.72;1.25;;;;;;;7.90;100.00;98834.50;5097821;28;20067;-60
2023/04/11 00:22:23;;;;;;;2.55;1.38;;;;;;;7.89;100.00;98832.91;5092452;28;20028;-60
2023/04/11 00:24:49;;;;;;;3.05;1.17;;;;;;;7.94;100.00;98835.66;5096913;28;20110;-60
2023/04/11 00:27:14;;;;;;;3.40;1.23;;;;;;;7.89;100.00;98827.56;5093539;28;20035;-60
2023/04/11 00:29:40;;;;;;;5.55;1.30;;;;;;;7.99;100.00;98854.47;5102184;28;20020;-60
2023/04/11 00:32:05;;;;;;;2.20;1.20;;;;;;;7.93;100.00;98866.06;5096234;28;20028;-60
2023/04/11 00:34:31;;;;;;;2.63;1.20;;;;;;;7.92;98.57;98847.63;5097972;28;20581;-59
2023/04/11 00:36:56;;;;;;;3.28;1.17;;;;;;;7.90;98.54;98855.84;5094620;28;20036;-60
2023/04/11 00:39:22;;;;;;;3.10;1.30;;;;;;;7.94;98.79;98848.22;5101362;28;20035;-60
2023/04/11 00:41:47;;;;;;;2.83;1.30;;;;;;;7.95;98.92;98847.97;5094402;28;20596;-60
2023/04/11 00:44:13;;;;;;;2.53;0.93;;;;;;;7.89;98.85;98848.91;5099674;28;20024;-59
2023/04/11 00:46:42;;;;;;;2.63;1.10;;;;;;;7.83;99.41;98847.16;5101071;28;20030;-60
2023/04/11 00:49:08;;;;;;;2.17;1.23;;;;;;;7.74;100.00;98832.56;5097388;28;20472;-60
2023/04/11 00:51:34;;;;;;;2.53;1.33;;;;;;;7.74;100.00;98845.91;5098976;28;20490;-59
2023/04/11 00:54:00;;;;;;;3.75;1.50;;;;;;;7.70;100.00;98844.75;5099528;27;20031;-60
2023/04/11 00:56:25;;;;;;;4.85;1.20;;;;;;;7.68;100.00;98838.81;5079288;28;20437;-60
2023/04/11 00:58:51;;;;;;;3.22;1.17;;;;;;;7.65;100.00;98815.28;5095450;28;20024;-60
2023/04/11 01:01:18;;;;;;;1.92;1.00;;;;;;;7.69;100.00;98811.13;5103498;28;20668;-59
2023/04/11 01:03:44;;;;;;;3.75;1.20;;;;;;;7.71;100.00;98793.84;5090026;28;20118;-60
2023/04/11 01:06:10;;;;;;;4.72;1.38;;;;;;;7.72;100.00;98786.63;5097967;28;20549;-60
2023/04/11 01:08:36;;;;;;;6.00;1.33;;;;;;;7.63;100.00;98806.69;5098479;28;20517;-60
2023/04/11 01:11:01;;;;;;;2.65;1.40;;;;;;;7.65;100.00;98828.63;5097094;28;20111;-60
2023/04/11 01:13:28;;;;;;;5.40;1.60;;;;;;;7.56;100.00;98838.81;5100979;28;20031;-60
2023/04/11 01:15:54;;;;;;;4.55;1.40;;;;;;;7.51;100.00;98820.88;5095438;28;20043;-60
2023/04/11 01:18:19;;;;;;;2.80;1.60;;;;;;;7.54;100.00;98809.72;5101177;28;20068;-60
2023/04/11 01:20:45;;;;;;;2.15;1.20;;;;;;;7.56;100.00;98806.81;5100983;28;20101;-59
2023/04/11 01:23:10;;;;;;;3.70;1.20;;;;;;;7.63;100.00;98828.03;5100355;28;20024;-60
2023/04/11 01:25:36;;;;;;;4.75;1.67;;;;;;;7.58;100.00;98858.06;5095123;28;21270;-60
2023/04/11 01:28:02;;;;;;;3.65;1.35;;;;;;;7.57;100.00;98867.13;5100084;28;20103;-60
2023/04/11 01:30:27;;;;;;;3.42;1.48;;;;;;;7.61;100.00;98864.78;5102449;28;20393;-60
2023/04/11 01:32:52;;;;;;;4.63;1.35;;;;;;;7.61;100.00;98841.59;5093497;28;20420;-60
2023/04/11 01:35:18;;;;;;;3.03;1.27;;;;;;;7.57;100.00;98825.25;5099379;28;20081;-60
2023/04/11 01:37:43;;;;;;;1.52;1.30;;;;;;;7.53;100.00;98824.09;5092989;28;20038;-60
2023/04/11 01:40:09;;;;;;;1.75;1.15;;;;;;;7.57;100.00;98837.78;5080613;28;20441;-60
2023/04/11 01:42:35;;;;;;;3.78;1.38;;;;;;;7.53;100.00;98832.09;5099083;28;20055;-60
2023/04/11 01:45:01;;;;;;;3.60;1.17;;;;;;;7.46;100.00;98844.75;5081558;28;20028;-60
2023/04/11 01:47:26;;;;;;;4.18;1.48;;;;;;;7.45;100.00;98829.78;5087935;28;20088;-60
2023/04/11 01:49:52;;;;;;;2.42;1.52;;;;;;;7.36;100.00;98823.16;5101464;28;20096;-60
2023/04/11 01:52:18;;;;;;;3.65;1.30;;;;;;;7.39;100.00;98820.06;5096008;28;20093;-60
2023/04/11 01:54:43;;;;;;;1.88;1.13;;;;;;;7.34;100.00;98828.75;5096209;28;20485;-60
2023/04/11 01:57:09;;;;;;;2.97;1.48;;;;;;;7.33;100.00;98812.97;5091816;28;20027;-60
2023/04/11 01:59:34;;;;;;;3.03;1.23;;;;;;;7.37;100.00;98822.13;5100916;28;20024;-60
2023/04/11 02:02:00;;;;;;;5.88;1.95;;;;;;;7.34;100.00;98806.59;5095130;28;20058;-60
2023/04/11 02:04:25;;;;;;;3.35;1.60;;;;;;;7.33;100.00;98803.09;5096956;28;20015;-60
2023/04/11 02:06:50;;;;;;;1.90;1.30;;;;;;;7.34;100.00;98814.59;5094823;28;20023;-60
2023/04/11 02:09:16;;;;;;;3.00;1.40;;;;;;;7.37;100.00;98824.00;5093667;28;20060;-60
2023/04/11 02:11:41;;;;;;;3.05;1.58;;;;;;;7.36;100.00;98823.16;5092744;28;20020;-62
2023/04/11 02:14:08;;;;;;;3.97;1.40;;;;;;;7.32;100.00;98832.69;5093692;28;20114;-60
2023/04/11 02:16:36;;;;;;;1.63;1.38;;;;;;;7.26;100.00;98817.59;5099154;28;20039;-60
2023/04/11 02:19:02;;;;;;;3.92;1.38;;;;;;;7.24;100.00;98812.50;5097009;28;20028;-60
2023/04/11 02:21:28;;;;;;;4.72;1.20;;;;;;;7.31;100.00;98804.38;5091732;28;20047;-60
2023/04/11 02:23:53;;;;;;;2.17;1.42;;;;;;;7.25;100.00;98842.63;5089291;28;20016;-60
2023/04/11 02:26:18;;;;;;;1.90;1.27;;;;;;;7.23;100.00;98844.72;5096669;28;20363;-60
2023/04/11 02:28:44;;;;;;;4.15;1.27;;;;;;;7.13;100.00;98839.94;5101774;28;20028;-60
2023/04/11 02:31:09;;;;;;;3.00;1.38;;;;;;;7.13;100.00;98827.44;5099764;28;20015;-60
2023/04/11 02:33:35;;;;;;;5.82;1.60;;;;;;;7.08;100.00;98829.97;5099623;28;20019;-60
2023/04/11 02:36:00;;;;;;;2.22;1.50;;;;;;;7.15;100.00;98842.41;5098065;28;20044;-60
2023/04/11 02:38:26;;;;;;;3.60;1.40;;;;;;;7.11;100.00;98842.88;5110248;28;20063;-60
2023/04/11 02:40:54;;;;;;;2.75;1.52;;;;;;;7.09;100.00;98847.59;5102896;28;20485;-60
2023/04/11 02:43:20;;;;;;;1.50;1.10;;;;;;;7.02;100.00;98838.91;5102571;28;20032;-60
2023/04/11 02:45:45;;;;;;;2.58;1.50;;;;;;;7.00;100.00;98830.31;5099895;27;20024;-60
2023/04/11 02:48:11;;;;;;;3.30;2.17;;;;;;;6.99;100.00;98831.38;5101244;28;20502;-60
2023/04/11 02:50:39;;;;;;;2.58;1.40;;;;;;;6.94;100.00;98844.56;5100111;28;20032;-60
2023/04/11 02:53:06;;;;;;;3.00;1.50;;;;;;;6.89;100.00;98852.44;5105634;28;20478;-60
2023/04/11 02:55:31;;;;;;;3.10;1.67;;;;;;;6.84;100.00;98853.09;5096083;28;20035;-60
2023/04/11 02:57:57;;;;;;;3.10;1.30;;;;;;;6.72;100.00;98862.91;5101554;28;20399;-60
2023/04/11 03:00:23;;;;;;;3.20;1.40;;;;;;;6.68;100.00;98870.50;5103482;27;20031;-60
2023/04/11 03:02:49;;;;;;;3.20;1.40;;;;;;;6.67;100.00;98863.56;5099547;28;20096;-59
2023/04/11 03:05:14;;;;;;;2.30;1.50;;;;;;;6.69;100.00;98861.50;5105916;28;20020;-61
2023/04/11 03:07:40;;;;;;;2.90;1.50;;;;;;;6.67;100.00;98855.59;5100028;28;20546;-60
2023/04/11 03:10:06;;;;;;;3.55;1.50;;;;;;;6.67;100.00;98857.44;5100580;28;20031;-61
2023/04/11 03:12:31;;;;;;;4.95;1.75;;;;;;;6.84;100.00;98865.59;5107152;28;20034;-61
2023/04/11 03:14:57;;;;;;;8.48;2.00;;;;;;;6.87;100.00;98862.50;5097226;28;20040;-60
2023/04/11 03:17:22;;;;;;;3.55;1.55;;;;;;;6.89;100.00;98881.72;5098340;28;20024;-60
2023/04/11 03:19:48;;;;;;;8.43;1.98;;;;;;;6.93;100.00;98888.22;5106346;27;20681;-61
2023/04/11 03:22:13;;;;;;;6.80;1.85;;;;;;;6.81;100.00;98890.81;5103316;28;20114;-60
2023/04/11 03:24:38;;;;;;;5.85;1.70;;;;;;;6.84;100.00;98897.56;5102156;27;20027;-60
2023/04/11 03:27:04;;;;;;;9.90;2.38;;;;;;;6.77;100.00;98894.19;5100385;28;20576;-60
2023/04/11 03:29:31;;;;;;;8.93;2.47;;;;;;;6.74;100.00;98883.97;5106230;28;20023;-60
2023/04/11 03:31:57;;;;;;;6.40;2.00;;;;;;;6.78;100.00;98893.16;5097552;28;20032;-60
2023/04/11 03:34:22;;;;;;;7.95;1.85;;;;;;;6.84;99.05;98895.72;5101209;28;20043;-60
2023/04/11 03:36:48;;;;;;;11.07;2.20;;;;;;;6.94;97.86;98887.19;5090592;28;20219;-60
2023/04/11 03:39:13;;;;;;;7.57;2.22;;;;;;;6.87;96.83;98875.81;5106712;28;20020;-60
2023/04/11 03:41:39;;;;;;;8.73;2.25;;;;;;;6.97;95.40;98878.75;5101144;28;20484;-60
2023/04/11 03:44:04;;;;;;;5.25;1.90;;;;;;;7.02;94.04;98870.88;5103209;28;20028;-60
2023/04/11 03:46:30;;;;;;;10.48;2.15;;;;;;;7.00;93.67;98880.13;5101483;28;20465;-61
2023/04/11 03:48:55;;;;;;;9.63;2.28;;;;;;;7.01;93.13;98889.75;5100562;28;20028;-60
2023/04/11 03:51:21;;;;;;;12.85;2.33;;;;;;;6.92;93.89;98902.59;5097633;28;20034;-60
2023/04/11 03:53:46;;;;;;;7.95;2.20;;;;;;;6.86;94.33;98914.97;5096088;28;20310;-60
2023/04/11 03:56:12;;;;;;;9.07;1.83;;;;;;;6.84;93.92;98914.38;5101817;28;20046;-60
2023/04/11 03:58:37;;;;;;;8.98;1.80;;;;;;;6.83;93.66;98909.25;5102535;28;20028;-60
2023/04/11 04:01:02;;;;;;;7.53;2.20;;;;;;;6.81;93.78;98914.00;5099755;28;20036;-60
2023/04/11 04:03:28;;;;;;;7.47;1.80;;;;;;;6.75;94.84;98914.91;5095237;28;20530;-60
2023/04/11 04:05:53;;;;;;;8.20;2.28;;;;;;;6.79;94.73;98905.41;5096758;28;20784;-62
2023/04/11 04:08:19;;;;;;;5.30;1.83;;;;;;;6.72;94.35;98924.16;5101126;28;20020;-62
2023/04/11 04:10:45;;;;;;;9.02;2.15;;;;;;;6.76;93.87;98929.84;5098251;28;20630;-60
2023/04/11 04:13:11;;;;;;;8.43;1.90;;;;;;;6.72;94.05;98931.34;5099025;28;20038;-62
2023/04/11 04:15:37;;;;;;;12.95;2.90;;;;;;;6.68;95.01;98930.97;5093418;28;20043;-59
2023/04/11 04:18:02;;;;;;;12.55;2.33;;;;;;;6.76;95.21;98924.50;5100775;27;20390;-59
2023/04/11 04:20:28;;;;;;;10.60;2.40;;;;;;;6.73;94.53;98925.78;5099938;28;20544;-60
2023/04/11 04:22:54;;;;;;;15.57;2.85;;;;;;;6.75;95.19;98928.22;5099391;28;20248;-60
2023/04/11 04:25:20;;;;;;;6.95;2.05;;;;;;;6.73;95.27;98930.28;5093257;28;20038;-61
2023/04/11 04:27:45;;;;;;;9.93;2.10;;;;;;;6.81;93.37;98927.31;5097787;28;20020;-64
2023/04/11 04:30:14;;;;;;;9.02;1.90;;;;;;;6.85;93.82;98923.16;5105089;28;20100;-60
2023/04/11 04:32:43;;;;;;;10.18;2.08;;;;;;;6.85;93.39;98923.16;5094042;28;20122;-60
2023/04/11 04:35:09;;;;;;;8.02;2.20;;;;;;;6.85;93.39;98923.16;5097826;28;20043;-60
2023/04/11 04:37:38;;;;;;;9.00;2.35;;;;;;;6.82;92.60;98927.09;5095140;28;20477;-60
2023/04/11 04:40:06;;;;;;;9.35;2.40;;;;;;;6.71;92.95;98922.53;5101935;28;20035;-60
2023/04/11 04:42:33;;;;;;;8.88;2.22;;;;;;;6.67;92.93;98927.50;5099564;28;20470;-59
2023/04/11 04:44:58;;;;;;;7.05;2.15;;;;;;;6.61;93.94;98933.69;5093947;28;20478;-59
2023/04/11 04:47:30;;;;;;;13.00;2.03;;;;;;;6.45;95.98;98921.81;5099367;28;20039;-59
2023/04/11 04:49:55;;;;;;;10.80;2.10;;;;;;;6.43;96.42;98920.41;5098744;28;20361;-59
2023/04/11 04:52:22;;;;;;;8.13;1.98;;;;;;;6.47;95.74;98925.06;5099674;28;20020;-60
2023/04/11 04:54:47;;;;;;;14.68;2.63;;;;;;;6.56;95.32;98935.41;5096518;28;20036;-61
2023/04/11 04:57:13;;;;;;;11.73;2.55;;;;;;;6.61;94.38;98932.88;5091111;28;20924;-60
2023/04/11 04:59:38;;;;;;;11.07;2.70;;;;;;;6.60;94.82;98941.94;5102373;28;20019;-60
2023/04/11 05:02:04;;;;;;;6.40;1.90;;;;;;;6.64;94.24;98943.09;5095006;28;20047;-61
2023/04/11 05:04:32;;;;;;;5.50;1.70;;;;;;;6.60;95.47;98941.94;5096775;28;20590;-59
2023/04/11 05:06:58;;;;;;;6.43;2.00;;;;;;;6.57;97.71;98943.19;5089095;28;20464;-60
2023/04/11 05:09:24;;;;;;;11.07;2.42;;;;;;;6.39;99.59;98945.84;5100630;27;20023;-60
2023/04/11 05:11:49;;;;;;;7.22;2.45;;;;;;;6.29;100.00;98950.88;5089232;28;20347;-60
2023/04/11 05:14:15;;;;;;;8.10;2.10;;;;;;;6.23;100.00;98956.03;5099599;28;20334;-60
2023/04/11 05:16:41;;;;;;;6.13;1.70;;;;;;;6.14;100.00;98953.88;5098483;28;20036;-60
2023/04/11 05:19:06;;;;;;;10.05;2.30;;;;;;;6.06;100.00;98947.00;5094375;28;20143;-60
2023/04/11 05:21:32;;;;;;;10.43;2.13;;;;;;;6.08;100.00;98944.94;5096475;28;20078;-59
2023/04/11 05:23:57;;;;;;;7.43;2.25;;;;;;;6.12;100.00;98962.09;5095270;28;20043;-59
2023/04/11 05:26:23;;;;;;;9.05;2.40;;;;;;;6.15;100.00;98963.50;5094875;28;20514;-60
2023/04/11 05:28:48;;;;;;;13.05;2.05;;;;;;;6.29;100.00;98969.50;5111458;27;20023;-60
2023/04/11 05:31:13;;;;;;;8.98;2.10;;;;;;;6.12;100.00;98970.09;5095004;28;20040;-59
2023/04/11 05:33:40;;;;;;;11.40;2.33;;;;;;;6.16;100.00;98975.78;5100233;28;20023;-60
2023/04/11 05:36:07;;;;;;;9.85;2.70;;;;;;;6.31;100.00;98980.75;5093181;28;20028;-61
2023/04/11 05:38:32;;;;;;;13.27;3.13;;;;;;;6.48;98.80;98984.47;5099822;28;20357;-60
2023/04/11 05:40:58;;;;;;;11.88;1.98;;;;;;;6.40;99.12;98982.09;5099732;28;20032;-59
2023/04/11 05:43:24;;;;;;;11.85;2.38;;;;;;;6.29;99.49;98982.81;5103255;28;20553;-59
2023/04/11 05:45:49;;;;;;;14.82;2.90;;;;;;;6.24;100.00;98989.63;5098425;28;20052;-59
2023/04/11 05:48:15;;;;;;;13.25;2.40;;;;;;;6.32;99.73;98990.38;5099880;28;20036;-60
2023/04/11 05:50:44;;;;;;;9.73;2.50;;;;;;;6.33;99.32;98989.34;5093733;28;20402;-61
2023/04/11 05:53:09;;;;;;;9.25;2.47;;;;;;;6.51;97.79;98986.66;5097323;28;20031;-61
2023/04/11 05:55:35;;;;;;;11.85;2.95;;;;;;;7.92;88.78;98997.88;5100644;28;20038;-62
2023/04/11 05:58:01;;;;;;;13.40;2.78;;;;;;;9.71;80.25;98996.16;5094331;28;20122;-59
2023/04/11 06:00:29;;;;;;;9.77;2.05;;;;;;;9.36;79.30;99007.06;5098118;28;20055;-59
2023/04/11 06:02:56;;;;;;;9.90;2.25;;;;;;;9.86;78.34;99005.47;5102461;28;20513;-60
2023/04/11 06:05:21;;;;;;;7.30;2.00;;;;;;;10.04;75.35;99002.59;5098800;28;20527;-60
2023/04/11 06:07:47;;;;;;;6.85;1.88;;;;;;;9.51;76.35;99014.56;5092645;28;20028;-59
2023/04/11 06:10:12;;;;;;;11.40;2.55;;;;;;;11.26;73.37;99013.31;5099662;27;20031;-60
2023/04/11 06:12:38;;;;;;;9.52;2.22;;;;;;;10.30;74.42;99006.47;5095987;28;20380;-59
2023/04/11 06:15:04;;;;;;;11.75;2.35;;;;;;;8.94;83.41;99009.19;5093107;28;20040;-59
2023/04/11 06:17:29;;;;;;;10.07;2.40;;;;;;;11.43;71.85;99008.66;5094268;28;20019;-60
2023/04/11 06:19:54;;;;;;;9.85;2.28;;;;;;;12.15;68.40;99009.28;5096434;28;20027;-60
2023/04/11 06:22:20;;;;;;;15.60;2.42;;;;;;;12.24;65.78;99012.31;5094522;28;20074;-62
2023/04/11 06:24:46;;;;;;;8.43;2.40;;;;;;;11.65;68.50;99010.47;5104503;27;20043;-61
2023/04/11 06:27:12;;;;;;;13.52;2.50;;;;;;;10.89;71.71;99016.66;5095356;28;20103;-61
2023/04/11 06:29:37;;;;;;;9.38;2.17;;;;;;;11.63;70.76;99026.00;5097655;28;20114;-61
2023/04/11 06:32:03;;;;;;;11.10;2.50;;;;;;;12.83;66.13;99030.13;5101886;28;20717;-60
2023/04/11 06:34:28;;;;;;;8.98;2.08;;;;;;;12.80;63.46;99030.66;5100734;28;20020;-60
2023/04/11 06:36:54;;;;;;;10.23;2.33;;;;;;;13.79;60.00;99042.28;5094379;28;20043;-60
2023/04/11 06:39:20;;;;;;;6.35;1.80;;;;;;;11.04;69.38;99047.41;5100890;28;20053;-61
2023/04/11 06:41:46;;;;;;;7.97;1.95;;;;;;;12.88;62.50;99041.72;5096203;28;20116;-62
2023/04/11 06:44:11;;;;;;;10.77;2.53;;;;;;;13.68;64.14;99040.63;5099752;28;20510;-61
2023/04/11 06:46:37;;;;;;;8.23;2.15;;;;;;;12.12;64.09;99042.06;5100195;28;20027;-60
2023/04/11 06:49:06;;;;;;;13.02;2.58;;;;;;;11.67;70.23;99045.94;5090247;28;20039;-62
2023/04/11 06:51:34;;;;;;;11.90;2.47;;;;;;;10.88;75.45;99049.84;5097442;28;20084;-61
2023/04/11 06:54:00;;;;;;;10.90;2.53;;;;;;;12.50;68.63;99056.28;5097404;28;20578;-60
2023/04/11 06:56:26;;;;;;;12.25;2.97;;;;;;;12.71;67.94;99054.53;5093647;28;20035;-60
2023/04/11 06:58:51;;;;;;;9.48;2.00;;;;;;;10.96;71.62;99062.84;5099381;28;20051;-60
2023/04/11 07:01:19;;;;;;;13.35;2.15;;;;;;;10.38;75.82;99060.69;5102472;28;20390;-60
2023/04/11 07:03:46;;;;;;;8.02;2.25;;;;;;;10.03;77.78;99064.41;5097578;28;20425;-60
2023/04/11 07:06:11;;;;;;;9.57;2.08;;;;;;;9.54;79.26;99074.81;5091497;28;20103;-60
2023/04/11 07:08:37;;;;;;;14.32;2.53;;;;;;;9.28;81.57;99058.25;5092225;28;20703;-60
2023/04/11 07:11:02;;;;;;;13.88;2.33;;;;;;;9.09;79.83;99073.66;5092063;28;20032;-59
2023/04/11 07:13:27;;;;;;;9.40;2.25;;;;;;;9.04;81.17;99073.56;5095789;28;20128;-59
2023/04/11 07:15:53;;;;;;;9.55;2.08;;;;;;;8.90;82.05;99067.66;5099964;28;20055;-60
2023/04/11 07:18:18;;;;;;;13.80;2.33;;;;;;;8.87;80.02;99059.31;5095072;28;20031;-59
2023/04/11 07:20:45;;;;;;;11.15;2.20;;;;;;;8.55;80.92;99062.34;5093134;28;20206;-59
2023/04/11 07:23:10;;;;;;;8.15;2.17;;;;;;;8.57;79.87;99065.59;5095262;28;20042;-59
2023/04/11 07:25:38;;;;;;;11.23;2.30;;;;;;;8.74;78.68;99069.19;5097551;28;20028;-60
2023/04/11 07:28:06;;;;;;;9.77;2.05;;;;;;;8.76;76.62;99075.13;5099074;28;20240;-60
2023/04/11 07:30:32;;;;;;;11.68;2.15;;;;;;;8.67;75.54;99065.81;5098411;28;20032;-59
2023/04/11 07:32:57;;;;;;;18.88;2.17;;;;;;;8.65;75.00;99065.25;5100887;28;20488;-60
2023/04/11 07:35:23;;;;;;;8.27;2.08;;;;;;;8.47;75.65;99068.84;5105824;28;20031;-61
2023/04/11 07:37:48;;;;;;;8.68;2.47;;;;;;;8.31;76.06;99074.84;5099796;28;20027;-60
2023/04/11 07:40:14;;;;;;;9.95;2.00;;;;;;;8.50;75.88;99067.56;5094047;28;20024;-60
2023/04/11 07:42:40;;;;;;;6.38;1.80;;;;;;;8.67;76.25;99079.19;5087476;28;20035;-60
2023/04/11 07:45:06;;;;;;;8.13;2.00;;;;;;;8.84;75.15;99079.28;5105335;27;20036;-60
2023/04/11 07:47:34;;;;;;;8.27;1.90;;;;;;;8.92;75.26;99075.44;5094795;28;20039;-61
2023/04/11 07:50:03;;;;;;;13.23;2.08;;;;;;;8.72;77.00;99083.84;5093376;28;20122;-60
2023/04/11 07:52:28;;;;;;;9.77;2.10;;;;;;;8.66;77.27;99104.25;5097125;28;20043;-61
2023/04/11 07:54:54;;;;;;;7.30;2.00;;;;;;;8.59;76.01;99092.91;5103176;28;20053;-60
2023/04/11 07:57:20;;;;;;;8.73;2.80;;;;;;;8.49;76.69;99087.34;5098097;28;20077;-61
2023/04/11 07:59:45;;;;;;;10.98;2.45;;;;;;;8.61;77.22;99096.13;5097858;28;20031;-60
2023/04/11 08:02:11;;;;;;;3.67;1.80;;;;;;;8.71;79.29;99101.72;5098584;28;20486;-61
2023/04/11 08:04:37;;;;;;;12.60;2.45;;;;;;;8.83;78.16;99107.84;5101508;27;21708;-60
2023/04/11 08:07:02;;;;;;;12.18;2.38;;;;;;;9.09;77.26;99102.25;5096259;28;20030;-60
2023/04/11 08:09:28;;;;;;;8.02;2.40;;;;;;;9.55;75.30;99101.28;5100602;28;20030;-60
2023/04/11 08:11:55;;;;;;;9.65;2.17;;;;;;;11.42;68.88;99095.59;5095725;28;20016;-60
2023/04/11 08:14:21;;;;;;;7.95;1.92;;;;;;;12.01;64.40;99100.25;5104644;28;20373;-60
2023/04/11 08:16:46;;;;;;;7.70;2.17;;;;;;;11.80;63.04;99096.53;5098128;28;20039;-59
2023/04/11 08:19:12;;;;;;;4.97;1.67;;;;;;;13.12;57.28;99109.34;5101128;28;20228;-60
2023/04/11 08:21:37;;;;;;;5.32;1.70;;;;;;;12.20;59.07;99102.56;5100219;28;20024;-62
2023/04/11 08:24:03;;;;;;;9.15;1.67;;;;;;;11.73;59.47;99098.63;5102558;28;20027;-60
2023/04/11 08:26:32;;;;;;;11.05;1.90;;;;;;;11.69;60.22;99107.44;5095863;28;20019;-61
2023/04/11 08:28:57;;;;;;;6.38;1.83;;;;;;;12.43;57.73;99106.75;5101724;28;20032;-61
2023/04/11 08:31:22;;;;;;;8.43;2.00;;;;;;;12.91;56.29;99107.66;5098370;28;20027;-59
2023/04/11 08:33:48;;;;;;;7.25;1.70;;;;;;;11.85;58.72;99106.50;5098427;28;20632;-59
2023/04/11 08:36:13;;;;;;;9.70;1.80;;;;;;;12.24;58.40;99115.22;5094552;28;20030;-59
2023/04/11 08:38:39;;;;;;;7.80;1.80;;;;;;;13.27;55.42;99121.28;5093672;28;20046;-59
2023/04/11 08:41:05;;;;;;;7.72;1.90;;;;;;;13.50;54.24;99120.84;5100822;28;20375;-60
2023/04/11 08:43:34;;;;;;;7.43;1.90;;;;;;;12.95;54.75;99116.78;5095465;28;20105;-59
2023/04/11 08:46:02;;;;;;;9.70;2.42;;;;;;;12.55;55.47;99123.53;5098385;27;20048;-59
2023/04/11 08:48:28;;;;;;;8.02;1.98;;;;;;;13.48;53.81;99128.38;5096480;28;20480;-61
2023/04/11 08:50:54;;;;;;;9.75;2.00;;;;;;;13.16;52.27;99126.59;5091610;28;20463;-60
2023/04/11 08:53:20;;;;;;;6.82;1.75;;;;;;;14.79;49.11;99130.69;5099114;28;20015;-60
2023/04/11 08:55:46;;;;;;;7.22;1.80;;;;;;;14.75;49.07;99129.66;5093006;28;20155;-60
2023/04/11 08:58:11;;;;;;;6.40;2.17;;;;;;;13.14;51.13;99122.56;5096631;27;20523;-60
2023/04/11 09:00:37;;;;;;;8.82;1.88;;;;;;;12.79;54.23;99123.16;5090615;28;20046;-60
2023/04/11 09:03:05;;;;;;;6.72;1.77;;;;;;;13.26;51.68;99135.81;5095849;28;20024;-60
2023/04/11 09:05:36;;;;;;;6.78;2.00;;;;;;;13.58;49.78;99131.13;5093700;28;20148;-59
2023/04/11 09:08:03;;;;;;;7.50;1.88;;;;;;;13.21;49.85;99127.72;5087456;28;20043;-59
2023/04/11 09:10:28;;;;;;;8.15;2.15;;;;;;;14.30;48.73;99130.41;5088563;28;20084;-60
2023/04/11 09:12:54;;;;;;;6.40;1.95;;;;;;;14.42;47.66;99136.34;5091617;28;20367;-60
2023/04/11 09:15:28;;;;;;;7.03;1.88;;;;;;;14.62;48.08;99151.75;5096402;28;20048;-60
2023/04/11 09:17:57;;;;;;;6.78;2.10;;;;;;;13.59;49.77;99134.63;5090419;28;20115;-60
2023/04/11 09:20:29;;;;;;;8.23;1.60;;;;;;;12.94;49.63;99134.00;5099482;28;20031;-60
2023/04/11 09:22:57;;;;;;;8.13;1.65;;;;;;;12.50;50.93;99134.25;5097012;28;20316;-60
2023/04/11 09:25:23;;;;;;;9.80;2.13;;;;;;;13.61;48.16;99140.56;5093335;28;20030;-59
2023/04/11 09:27:48;;;;;;;12.85;2.17;;;;;;;14.39;46.99;99148.50;5093285;28;20028;-60
2023/04/11 09:30:32;;;;;;;6.32;2.08;;;;;;;13.97;48.06;99148.72;5097782;28;20466;-60
2023/04/11 09:32:57;;;;;;;5.32;1.50;;;;;;;13.27;47.49;99142.81;5093866;28;20036;-60
2023/04/11 09:35:23;;;;;;;6.00;1.92;;;;;;;12.95;48.24;99141.00;5096670;28;20034;-60
2023/04/11 09:37:52;;;;;;;9.82;2.13;;;;;;;13.73;48.13;99134.94;5095536;28;20035;-60
2023/04/11 09:40:19;;;;;;;6.30;1.55;;;;;;;14.35;46.02;99142.03;5091255;27;20921;-60
2023/04/11 09:42:45;;;;;;;6.28;1.80;;;;;;;14.16;45.30;99151.72;5094898;28;20035;-60
2023/04/11 09:45:20;;;;;;;7.13;1.90;;;;;;;14.02;46.75;99152.22;5099249;28;20494;-60
2023/04/11 09:47:46;;;;;;;5.30;1.77;;;;;;;14.19;46.22;99153.88;5095176;28;20047;-60
2023/04/11 09:50:12;;;;;;;4.68;1.67;;;;;;;14.77;43.17;99159.84;5099014;28;20028;-59
2023/04/11 09:52:41;;;;;;;7.03;1.88;;;;;;;13.75;44.33;99148.91;5094766;28;20069;-59
2023/04/11 09:55:10;;;;;;;8.10;1.73;;;;;;;13.94;44.61;99147.38;5095932;28;20131;-60
2023/04/11 09:57:35;;;;;;;6.18;1.50;;;;;;;14.13;44.91;99154.97;5096989;28;20067;-59
2023/04/11 10:00:20;;;;;;;4.03;1.70;;;;;;;14.85;42.94;99151.22;5097162;28;20141;-60
2023/04/11 10:02:48;;;;;;;6.30;1.83;;;;;;;14.54;43.45;99155.00;5096632;28;20043;-60
2023/04/11 10:05:14;;;;;;;9.35;2.75;;;;;;;14.94;43.29;99147.94;5092797;28;20054;-61
2023/04/11 10:07:48;;;;;;;6.30;1.95;;;;;;;14.10;43.69;99150.88;5077789;28;20143;-60
2023/04/11 10:10:18;;;;;;;6.20;1.83;;;;;;;13.82;44.07;99158.38;5088524;28;20471;-59
2023/04/11 10:12:44;;;;;;;5.05;1.70;;;;;;;13.12;43.96;99157.78;5087083;28;20063;-59
2023/04/11 10:15:10;;;;;;;8.88;2.25;;;;;;;13.58;42.13;99149.16;5095989;28;20048;-60
2023/04/11 10:17:36;;;;;;;6.45;1.67;;;;;;;14.89;40.00;99157.66;5092252;28;20035;-59
2023/04/11 10:20:04;;;;;;;6.88;2.42;;;;;;;13.97;41.66;99151.41;5087834;28;20019;-60
2023/04/11 10:22:45;;;;;;;6.82;1.73;;;;;;;14.61;41.40;99150.16;5075609;28;20035;-59
2023/04/11 10:25:17;;;;;;;4.90;1.60;;;;;;;14.79;40.89;99154.97;5091755;28;20031;-59
2023/04/11 10:28:08;;;;;;;4.95;1.50;;;;;;;15.53;39.23;99156.13;5098475;28;20105;-59
2023/04/11 10:30:40;;;;;;;7.43;1.67;;;;;;;16.14;39.71;99149.59;5092953;28;20067;-60
2023/04/11 10:33:16;;;;;;;5.45;1.85;;;;;;;16.21;39.03;99143.09;5099534;28;20046;-59
2023/04/11 10:36:04;;;;;;;3.05;1.30;;;;;;;16.52;36.35;99139.03;5094319;28;20027;-59
2023/04/11 10:38:35;;;;;;;7.70;1.60;;;;;;;16.67;38.36;99145.41;5090964;28;20031;-60
2023/04/11 10:41:23;;;;;;;3.85;1.38;;;;;;;16.43;38.73;99145.38;5087048;28;20039;-59
2023/04/11 10:43:49;;;;;;;4.38;1.50;;;;;;;16.36;38.27;99145.69;5089726;28;20412;-59
2023/04/11 10:46:21;;;;;;;5.80;1.65;;;;;;;16.32;37.79;99140.00;5096946;28;20110;-59
2023/04/11 10:49:02;;;;;;;5.53;1.60;;;;;;;16.66;37.40;99141.09;5090650;28;20077;-59
2023/04/11 10:51:30;;;;;;;7.38;1.83;;;;;;;16.34;37.30;99145.16;5086847;28;20405;-59
2023/04/11 10:53:58;;;;;;;7.22;1.60;;;;;;;15.97;37.14;99135.66;5096897;28;20066;-59
2023/04/11 10:56:41;;;;;;;5.53;1.50;;;;;;;15.74;37.50;99129.03;5090942;28;20043;-59
2023/04/11 10:59:27;;;;;;;11.63;1.80;;;;;;;16.27;37.10;99126.53;5099615;28;20128;-59
2023/04/11 11:01:53;;;;;;;3.85;1.40;;;;;;;15.70;36.80;99127.97;5059940;28;20134;-59
2023/04/11 11:04:19;;;;;;;4.65;1.80;;;;;;;15.77;37.92;99130.38;5101554;28;20034;-62
2023/04/11 11:06:45;;;;;;;8.27;1.60;;;;;;;15.51;39.35;99125.09;5091057;28;20016;-60
2023/04/11 11:09:21;;;;;;;7.18;2.00;;;;;;;15.18;39.29;99130.06;5093959;28;20036;-60
2023/04/11 11:12:07;;;;;;;4.75;1.42;;;;;;;14.27;40.46;99128.28;5093268;28;20525;-59
2023/04/11 11:14:32;;;;;;;6.43;1.70;;;;;;;15.17;41.80;99133.84;5092313;28;20034;-61
2023/04/11 11:17:01;;;;;;;7.35;1.40;;;;;;;14.24;37.95;99135.00;5092232;28;20036;-60
2023/04/11 11:19:27;;;;;;;5.63;1.58;;;;;;;15.45;36.62;99142.38;5098212;28;20039;-60
2023/04/11 11:21:53;;;;;;;4.40;1.50;;;;;;;16.08;37.66;99142.63;5097534;28;20477;-61
2023/04/11 11:24:25;;;;;;;5.80;1.45;;;;;;;15.95;35.39;99149.47;5099962;28;20078;-60
2023/04/11 11:26:52;;;;;;;7.68;1.35;;;;;;;16.58;35.80;99140.63;5094328;28;20492;-61
2023/04/11 11:29:31;;;;;;;4.03;1.40;;;;;;;16.67;35.28;99145.41;5104017;28;21309;-60
2023/04/11 11:31:58;;;;;;;3.65;1.20;;;;;;;17.28;35.38;99149.44;5093668;28;20110;-60